createdAt,value
2022-10-23T00:02:02.675Z,16.62
2022-10-23T00:07:54.761Z,16.73
2022-10-23T00:13:41.664Z,16.62
2022-10-23T00:19:28.457Z,16.73
2022-10-23T00:25:16.581Z,16.68
2022-10-23T00:31:05.634Z,16.72
2022-10-23T00:36:52.449Z,16.70
2022-10-23T00:42:39.354Z,16.83
2022-10-23T00:48:28.152Z,16.62
2022-10-23T00:54:23.933Z,16.67
2022-10-23T01:00:16.505Z,16.65
2022-10-23T01:06:14.468Z,16.68
2022-10-23T01:12:03.634Z,16.50
2022-10-23T01:18:24.936Z,16.30
2022-10-23T01:24:15.166Z,16.32
2022-10-23T01:30:11.818Z,16.28
2022-10-23T01:36:06.408Z,16.47
2022-10-23T01:41:57.498Z,16.69
2022-10-23T01:47:50.971Z,16.82
2022-10-23T01:53:43.438Z,16.64
2022-10-23T02:00:02.831Z,16.49
2022-10-23T02:05:55.927Z,16.46
2022-10-23T02:12:02.285Z,16.18
2022-10-23T02:18:06.978Z,16.09
2022-10-23T02:24:05.376Z,16.08
2022-10-23T02:29:55.520Z,16.40
2022-10-23T02:35:42.641Z,16.46
2022-10-23T02:42:00.014Z,16.50
2022-10-23T02:47:58.841Z,16.65
2022-10-23T02:54:08.063Z,16.77
2022-10-23T03:00:13.505Z,16.91
2022-10-23T03:06:01.046Z,16.78
2022-10-23T03:11:48.275Z,16.84
2022-10-23T03:17:35.222Z,16.56
2022-10-23T03:23:22.726Z,16.42
2022-10-23T03:29:09.335Z,16.33
2022-10-23T03:35:01.916Z,16.26
2022-10-23T03:40:48.849Z,16.21
2022-10-23T03:46:35.712Z,16.09
2022-10-23T03:52:22.410Z,16.17
2022-10-23T03:58:11.951Z,16.11
2022-10-23T04:03:58.699Z,16.08
2022-10-23T04:09:46.673Z,16.15
2022-10-23T04:15:36.217Z,16.10
2022-10-23T04:21:24.808Z,15.98
2022-10-23T04:27:11.528Z,16.17
2022-10-23T04:32:58.414Z,16.26
2022-10-23T04:38:45.578Z,15.96
2022-10-23T04:44:32.653Z,16.46
2022-10-23T04:50:20.638Z,16.40
2022-10-23T04:56:25.682Z,16.45
2022-10-23T05:02:28.412Z,16.49
2022-10-23T05:08:17.921Z,16.71
2022-10-23T05:14:25.005Z,16.72
2022-10-23T05:20:18.355Z,16.81
2022-10-23T05:26:05.189Z,16.89
2022-10-23T05:31:57.489Z,16.93
2022-10-23T05:37:50.621Z,16.99
2022-10-23T05:43:40.972Z,17.13
2022-10-23T05:49:53.862Z,17.25
2022-10-23T05:56:07.448Z,17.34
2022-10-23T06:02:06.175Z,17.41
2022-10-23T06:08:05.992Z,17.53
2022-10-23T06:13:52.921Z,17.62
2022-10-23T06:19:41.150Z,17.62
2022-10-23T06:25:27.980Z,17.64
2022-10-23T06:31:21.736Z,17.54
2022-10-23T06:37:11.239Z,17.49
2022-10-23T06:43:14.817Z,17.30
2022-10-23T06:49:25.362Z,17.01
2022-10-23T06:55:13.787Z,16.79
2022-10-23T07:01:06.195Z,16.83
2022-10-23T07:06:57.431Z,16.89
2022-10-23T07:12:49.901Z,16.77
2022-10-23T07:18:59.701Z,16.74
2022-10-23T07:24:46.494Z,16.84
2022-10-23T07:30:41.169Z,16.89
2022-10-23T07:36:30.729Z,17.01
2022-10-23T07:42:17.653Z,16.92
2022-10-23T07:48:06.271Z,16.97
2022-10-23T07:54:12.865Z,17.15
2022-10-23T08:00:02.582Z,17.21
2022-10-23T08:05:50.027Z,17.11
2022-10-23T08:11:37.216Z,17.14
2022-10-23T08:17:28.668Z,17.06
2022-10-23T08:23:35.772Z,17.08
2022-10-23T08:29:24.189Z,16.96
2022-10-23T08:35:16.297Z,17.00
2022-10-23T08:41:05.053Z,16.94
2022-10-23T08:47:39.191Z,16.83
2022-10-23T08:54:08.386Z,16.80
2022-10-23T09:00:00.901Z,16.78
2022-10-23T09:05:56.760Z,16.78
2022-10-23T09:11:58.830Z,16.89
2022-10-23T09:17:47.874Z,17.02
2022-10-23T09:23:35.526Z,16.91
2022-10-23T09:29:36.444Z,17.15
2022-10-23T09:35:25.738Z,17.19
2022-10-23T09:41:14.611Z,17.44
2022-10-23T09:47:08.659Z,17.53
2022-10-23T09:52:56.986Z,17.58
2022-10-23T09:59:11.442Z,17.74
2022-10-23T10:05:27.271Z,17.31
2022-10-23T10:18:35.602Z,17.73
2022-10-23T10:24:55.856Z,17.78
2022-10-23T10:31:33.864Z,17.82
2022-10-23T10:37:55.588Z,17.95
2022-10-23T10:44:09.427Z,18.27
2022-10-23T10:50:08.876Z,18.40
2022-10-23T10:56:22.220Z,18.62
2022-10-23T11:02:19.740Z,18.72
2022-10-23T11:08:23.633Z,18.99
2022-10-23T11:14:17.911Z,18.96
2022-10-23T11:20:21.494Z,18.99
2022-10-23T11:26:27.038Z,19.06
2022-10-23T11:38:38.835Z,19.12
2022-10-23T11:44:35.713Z,19.45
2022-10-23T11:50:31.300Z,19.67
2022-10-23T11:56:23.562Z,19.74
2022-10-23T12:02:34.157Z,19.68
2022-10-23T12:08:25.850Z,19.96
2022-10-23T12:14:55.137Z,20.05
2022-10-23T12:21:05.434Z,20.13
2022-10-23T12:27:04.875Z,20.09
2022-10-23T12:33:10.594Z,20.22
2022-10-23T12:39:01.118Z,19.98
2022-10-23T12:45:24.359Z,19.82
2022-10-23T12:51:23.974Z,19.87
2022-10-23T12:57:30.771Z,19.98
2022-10-23T13:03:20.970Z,19.73
2022-10-23T13:09:50.528Z,20.04
2022-10-23T13:16:32.725Z,19.97
2022-10-23T13:22:48.656Z,19.92
2022-10-23T13:36:23.922Z,19.80
2022-10-23T13:42:16.498Z,19.83
2022-10-23T13:48:16.660Z,19.95
2022-10-23T13:54:04.020Z,20.04
2022-10-23T13:59:51.101Z,20.13
2022-10-23T14:05:44.892Z,20.10
2022-10-23T14:11:36.660Z,19.90
2022-10-23T14:17:23.570Z,19.81
2022-10-23T14:23:10.280Z,19.80
2022-10-23T14:29:00.672Z,19.95
2022-10-23T14:34:56.886Z,19.74
2022-10-23T14:40:49.898Z,19.79
2022-10-23T14:46:38.573Z,19.87
2022-10-23T14:52:25.890Z,19.73
2022-10-23T14:58:13.293Z,19.55
2022-10-23T15:04:02.903Z,19.43
2022-10-23T15:09:52.043Z,19.28
2022-10-23T15:15:39.119Z,19.31
2022-10-23T15:21:25.754Z,19.05
2022-10-23T15:27:14.109Z,18.86
2022-10-23T15:33:02.478Z,18.68
2022-10-23T15:38:50.531Z,18.60
2022-10-23T15:44:46.231Z,18.48
2022-10-23T15:58:22.534Z,18.49
2022-10-23T16:04:09.662Z,18.46
2022-10-23T16:09:59.888Z,16.16
2022-10-23T16:15:46.671Z,15.56
2022-10-23T16:21:36.053Z,15.35
2022-10-23T16:27:22.944Z,15.31
2022-10-23T16:33:17.170Z,15.36
2022-10-23T16:39:06.923Z,15.34
2022-10-23T16:45:13.855Z,15.45
2022-10-23T16:51:11.467Z,15.69
2022-10-23T16:56:58.872Z,15.68
2022-10-23T17:02:54.194Z,15.65
2022-10-23T17:08:42.890Z,15.64
2022-10-23T17:14:32.215Z,15.73
2022-10-23T17:20:19.881Z,15.37
2022-10-23T17:26:12.029Z,15.01
2022-10-23T17:31:59.429Z,14.89
2022-10-23T17:37:50.679Z,14.71
2022-10-23T17:43:38.112Z,14.64
2022-10-23T17:49:28.103Z,14.58
2022-10-23T17:55:14.965Z,14.55
2022-10-23T18:01:10.410Z,14.46
2022-10-23T18:06:58.324Z,14.41
2022-10-23T18:12:49.113Z,14.51
2022-10-23T18:18:40.147Z,14.55
2022-10-23T18:24:26.905Z,14.63
2022-10-23T18:30:14.214Z,14.67
2022-10-23T18:36:03.502Z,14.77
2022-10-23T18:48:00.432Z,14.87
2022-10-23T18:53:47.536Z,14.79
2022-10-23T18:59:36.747Z,14.89
2022-10-23T19:05:30.942Z,14.93
2022-10-23T19:11:40.403Z,14.93
2022-10-23T19:17:32.276Z,14.85
2022-10-23T19:23:22.410Z,14.95
2022-10-23T19:29:17.151Z,14.89
2022-10-23T19:35:04.137Z,15.00
2022-10-23T19:41:30.675Z,14.86
2022-10-23T19:47:17.607Z,14.92
2022-10-23T19:53:07.466Z,14.94
2022-10-23T19:58:57.407Z,14.96
2022-10-23T20:04:44.449Z,15.09
2022-10-23T20:10:32.140Z,15.17
2022-10-23T20:16:24.021Z,15.34
2022-10-23T20:22:23.969Z,15.35
2022-10-23T20:28:50.122Z,15.50
2022-10-23T20:41:41.761Z,15.56
2022-10-23T20:47:31.763Z,15.02
2022-10-23T20:53:29.612Z,14.91
2022-10-23T20:59:23.521Z,14.97
2022-10-23T21:05:10.813Z,15.06
2022-10-23T21:11:12.345Z,15.10
2022-10-23T21:17:02.161Z,15.05
2022-10-23T21:22:49.259Z,15.16
2022-10-23T21:28:40.021Z,15.24
2022-10-23T21:34:29.142Z,15.28
2022-10-23T21:40:16.224Z,15.40
2022-10-23T21:46:11.158Z,15.22
2022-10-23T21:52:06.452Z,15.29
2022-10-23T21:58:02.157Z,15.36
2022-10-23T22:03:49.740Z,15.33
2022-10-23T22:09:37.297Z,15.39
2022-10-23T22:15:24.367Z,15.43
2022-10-23T22:21:23.080Z,15.41
2022-10-23T22:27:15.615Z,15.33
2022-10-23T22:33:02.310Z,15.27
2022-10-23T22:38:49.281Z,15.24
2022-10-23T22:44:38.689Z,15.25
2022-10-23T22:50:25.648Z,15.35
2022-10-23T22:56:33.235Z,15.46
2022-10-23T23:02:20.186Z,15.37
2022-10-23T23:08:09.630Z,15.25
2022-10-23T23:13:59.275Z,15.25
2022-10-23T23:19:49.007Z,15.15
2022-10-23T23:25:41.277Z,15.27
2022-10-23T23:31:28.205Z,15.15
2022-10-23T23:37:22.435Z,15.11
2022-10-23T23:43:09.109Z,15.05
